Station: Dum In Mirrie  

  Atmospheric Gas Attenuation - ITU Rec 676-11   ----------------- dB/100km -----------------
Date Time Temp RH % AH g/m3 Dew Point Wind Direction Speed kph Gust kph Barometer mB Rainfall Since 9am 24GHz 47GHz 76GHz 122GHz 134GHz 241GHz
08/05 12:00 30.3 41 12.64 15.6 13 22 1011.8 0 27.2 27.2 46.3 122.2 125.6 435.6
08/05 11:50 30 44 13.35 16.4 9 15 1011.9 0 28.7 28.4 49.2 129.7 134.7 467.5
08/05 11:40 29.7 42 12.53 15.7 9 17 1012.1 0 27.0 27.2 46.3 122.0 125.2 434.3
08/05 11:30 29.2 44 12.78 15.7 13 24 1012.2 0 27.5 27.8 47.5 125.3 129.1 447.7
08/05 11:20 28.9 44 12.57 15.4 11 17 1012.3 0 27.1 27.6 46.9 123.7 127.0 440.4
08/05 11:10 29.1 44 12.71 15.6 9 13 1012.5 0 27.4 27.7 47.3 124.8 128.4 445.4
08/05 11:00 28.5 44 12.3 15.1 11 24 1012.6 0 26.6 27.3 46.2 121.6 124.4 431.2
08/05 10:50 28.3 47 12.99 15.9 11 13 1012.7 0 28.0 28.4 48.9 128.9 133.2 462.1
08/05 10:40 27.7 46 12.31 15.3 9 20 1012.8 0 26.7 27.5 46.7 123.0 125.8 436.0
08/05 10:30 27.4 46 12.1 14.8 13 28 1012.9 0 26.2 27.3 46.1 121.3 123.7 428.6
08/05 10:20 26.9 46 11.77 14.6 13 19 1012.9 0 25.6 27.0 45.1 118.8 120.4 417.1
08/05 10:10 26.5 48 12.02 14.6 17 24 1012.9 0 26.1 27.5 46.3 121.9 124.1 430.0
08/05 10:00 26.3 48 11.88 14.4 13 22 1013 0 25.8 27.3 45.9 120.8 122.7 425.0
08/05 09:50 26 48 11.69 14.4 15 22 1012.9 0 25.5 27.1 45.3 119.3 120.8 418.3
08/05 09:40 25.9 49 11.86 14.6 11 17 1012.9 0 25.8 27.4 46.0 121.2 123.1 426.3
08/05 09:30 25.5 51 12.07 14.6 11 24 1012.8 0 26.3 27.9 47.0 123.9 126.3 437.6
08/05 09:20 24.8 51 11.61 14.2 11 20 1012.8 0 25.4 27.4 45.7 120.3 121.6 421.1
08/05 09:10 25 51 11.74 14.4 9 15 1012.8 0 25.6 27.5 46.1 121.3 123.0 425.8
08/05 09:00 24.6 53 11.93 14.4 11 24 1012.7 0 26.1 27.9 47.0 123.9 126.0 436.3
08/05 08:50 24.2 54 11.88 14.3 7 9 1012.6 0 26.0 28.0 47.1 124.0 126.0 436.3
08/05 08:40 23.9 56 12.11 14.8 9 17 1012.5 0 26.5 28.4 48.1 126.8 129.4 448.3
08/05 08:30 23.4 56 11.77 14.1 11 19 1012.5 0 25.8 28.0 47.1 124.1 125.8 435.7
08/05 08:20 23.1 57 11.78 14.1 11 19 1012.6 0 25.8 28.2 47.3 124.7 126.5 437.9
08/05 08:10 22.5 59 11.78 14.1 13 19 1012.4 0 25.9 28.3 47.7 125.6 127.4 441.1
08/05 08:00 21.9 62 11.96 14.3 9 19 1012.4 0 26.3 28.8 48.8 128.5 130.8 452.8
08/05 07:50 21.4 64 12 14.5 9 13 1012.4 0 26.4 29.0 49.2 129.7 132.2 457.6
08/05 07:40 21 66 12.09 14.4 6 9 1012.3 0 26.6 29.3 49.8 131.4 134.1 464.1
08/05 07:30 20.7 67 12.06 14.4 6 13 1012.1 0 26.6 29.4 49.9 131.5 134.2 464.4
08/05 07:20 20.5 66 11.74 14.1 7 9 1012 0 25.9 28.9 48.7 128.3 130.2 450.5
08/05 07:10 20.3 68 11.96 14.2 6 9 1011.9 0 26.4 29.3 49.7 131.1 133.5 462.0
08/05 07:00 20.4 68 12.03 14.3 7 15 1011.8 0 26.5 29.4 50.0 131.6 134.2 464.7
08/05 06:50 20.5 68 12.1 14.4 9 13 1011.7 0 26.7 29.5 50.2 132.2 135.0 467.3
08/05 06:40 20.5 68 12.1 14.4 7 9 1011.6 0 26.7 29.5 50.2 132.2 135.0 467.3
08/05 06:30 20.7 67 12.06 14.4 7 17 1011.5 0 26.6 29.3 49.9 131.4 134.1 464.2
08/05 06:20 20.8 67 12.13 14.4 6 9 1011.6 0 26.7 29.4 50.1 132.0 134.9 466.9
08/05 06:10 21 66 12.09 14.4 6 9 1011.5 0 26.6 29.3 49.8 131.3 134.0 463.8
08/05 06:00 21 66 12.09 14.4 7 17 1011.5 0 26.6 29.3 49.8 131.3 134.0 463.8
08/05 05:50 21.2 66 12.23 14.6 6 6 1011.4 0 26.9 29.5 50.2 132.4 135.5 469.2
08/05 05:40 21.3 64 11.93 14.4 4 6 1011.3 0 26.3 28.9 49.0 129.0 131.3 454.5
08/05 05:30 21.6 64 12.14 14.5 7 13 1011.3 0 26.7 29.2 49.6 130.8 133.6 462.5
08/05 05:20 21.6 64 12.14 14.5 7 15 1011.3 0 26.7 29.2 49.6 130.8 133.6 462.5
08/05 05:10 21.6 65 12.33 14.9 7 15 1011.2 0 27.1 29.5 50.4 132.8 136.1 471.4
08/05 05:00 21.3 66 12.3 14.7 6 15 1011.3 0 27.0 29.5 50.5 133.0 136.3 471.8
08/05 04:50 21.2 67 12.42 14.8 7 13 1011.2 0 27.3 29.8 51.0 134.5 138.0 478.0
08/05 04:40 21.2 67 12.42 15 7 11 1011.2 0 27.3 29.8 51.0 134.5 138.0 478.0
08/05 04:30 21.4 67 12.56 15 6 11 1011.1 0 27.6 29.9 51.5 135.7 139.6 483.4
08/05 04:20 21.5 68 12.82 15.3 4 4 1011 0 28.1 30.3 52.5 138.4 142.9 495.1
08/05 04:10 21.6 65 12.33 14.9 6 6 1011.1 0 27.1 29.5 50.4 132.8 136.1 471.3
08/05 04:00 21.7 65 12.4 14.8 6 13 1011.2 0 27.2 29.6 50.6 133.4 136.9 474.1
08/05 03:50 21.7 64 12.21 14.6 6 9 1011.2 0 26.8 29.2 49.8 131.4 134.3 465.2
08/05 03:40 21.9 63 12.16 14.5 7 9 1011.2 0 26.7 29.1 49.5 130.5 133.3 461.7
08/05 03:30 21.9 63 12.16 14.5 4 9 1011.3 0 26.7 29.1 49.5 130.5 133.3 461.7
08/05 03:20 22 61 11.84 14.3 6 6 1011.4 0 26.0 28.6 48.2 126.9 128.9 446.4
08/05 03:10 22.1 61 11.91 14.2 7 11 1011.4 0 26.2 28.6 48.4 127.5 129.7 449.0
08/05 03:00 22.4 61 12.11 14.5 6 13 1011.4 0 26.6 28.9 49.0 129.1 131.8 456.5
08/05 02:50 22.4 61 12.11 14.5 7 11 1011.6 0 26.6 28.9 49.0 129.2 131.8 456.6
08/05 02:40 22.5 61 12.18 14.6 4 6 1011.7 0 26.7 29.0 49.2 129.8 132.6 459.2
08/05 02:30 22.6 59 11.85 14.2 4 9 1011.8 0 26.0 28.4 47.9 126.1 128.1 443.6
08/05 02:20 22.7 58 11.72 14 6 9 1011.9 0 25.7 28.2 47.3 124.6 126.3 437.1
08/05 02:10 22.8 58 11.78 14.1 4 7 1011.9 0 25.9 28.2 47.5 125.0 126.9 439.3
08/05 02:00 22.9 59 12.06 14.5 6 11 1011.9 0 26.4 28.6 48.5 127.9 130.4 451.5
08/05 01:50 23.1 58 11.99 14.6 6 7 1012 0 26.3 28.5 48.1 126.8 129.1 447.2
08/05 01:40 23.2 58 12.06 14.7 7 9 1012.1 0 26.4 28.5 48.3 127.4 129.9 449.8
08/05 01:30 23.3 59 12.34 14.8 7 17 1012.2 0 27.0 29.0 49.4 130.2 133.4 462.1
08/05 01:20 23.1 60 12.4 14.9 6 11 1012.2 0 27.1 29.1 49.8 131.2 134.5 466.0
08/05 01:10 23.1 58 11.99 14.6 7 11 1012.2 0 26.3 28.5 48.1 126.8 129.2 447.3
08/05 01:00 23.3 59 12.34 14.8 7 17 1012.2 0 27.0 29.0 49.4 130.2 133.4 462.1
08/05 00:50 23.4 59 12.41 14.9 7 13 1012.3 0 27.1 29.1 49.6 130.8 134.2 464.7
08/05 00:40 23.5 57 12.05 14.7 7 15 1012.3 0 26.4 28.4 48.1 126.8 129.3 447.7
08/05 00:30 23.6 59 12.55 15.1 9 19 1012.4 0 27.4 29.2 50.1 132.0 135.7 470.0
08/05 00:20 23.8 57 12.26 15 9 15 1012.5 0 26.8 28.7 48.8 128.6 131.5 455.6
08/05 00:10 23.8 59 12.69 15.3 7 13 1012.6 0 27.7 29.4 50.5 133.2 137.2 475.3
08/05 00:00 24 58 12.62 15.2 7 17 1012.7 0 27.5 29.2 50.1 132.1 135.9 470.9
07/05 23:50 24.2 58 12.76 15.4 4 6 1012.7 0 27.8 29.4 50.5 133.3 137.4 476.1
07/05 23:40 24.2 58 12.76 15.4 7 9 1012.8 0 27.8 29.4 50.5 133.3 137.4 476.2
07/05 23:30 24.3 57 12.61 15.2 7 15 1012.9 0 27.5 29.1 49.9 131.5 135.3 468.8
07/05 23:20 24.5 55 12.31 15.1 9 19 1013 0 26.9 28.6 48.6 128.0 131.0 454.0
07/05 23:10 24.5 55 12.31 15.1 7 9 1013.1 0 26.9 28.6 48.6 128.0 131.1 454.1
07/05 23:00 24.6 57 12.83 15.5 7 13 1013.1 0 27.9 29.4 50.6 133.4 137.6 477.1
07/05 22:50 24.7 56 12.67 15.3 7 13 1013 0 27.6 29.1 49.9 131.5 135.4 469.1
07/05 22:40 24.8 56 12.75 15.4 6 13 1013 0 27.8 29.2 50.1 132.2 136.2 472.2
07/05 22:30 24.9 54 12.36 15.2 7 13 1013 0 26.9 28.5 48.5 127.9 131.0 454.0
07/05 22:20 25.2 54 12.57 15.2 7 11 1013 0 27.4 28.7 49.2 129.6 133.2 461.7
07/05 22:10 25.1 53 12.27 15.1 6 9 1013.1 0 26.7 28.3 48.1 126.7 129.5 448.8
07/05 22:00 25.2 54 12.57 15.2 7 15 1013.1 0 27.4 28.8 49.2 129.6 133.2 461.7
07/05 21:50 25.2 54 12.57 15.2 6 9 1013 0 27.4 28.7 49.2 129.6 133.2 461.7
07/05 21:40 25.2 55 12.8 15.5 6 9 1013 0 27.8 29.1 50.1 132.0 136.2 472.1
07/05 21:30 25.3 54 12.64 15.3 7 15 1013 0 27.5 28.8 49.4 130.2 133.9 464.2
07/05 21:20 25.4 53 12.48 15.1 9 13 1012.9 0 27.2 28.5 48.7 128.3 131.7 456.4
07/05 21:10 25.4 53 12.48 15.1 6 7 1012.9 0 27.2 28.5 48.7 128.3 131.7 456.4
07/05 21:00 25.3 55 12.88 15.6 6 13 1012.9 0 28.0 29.2 50.3 132.7 137.0 475.0
07/05 20:50 25.3 55 12.88 15.6 6 9 1012.7 0 28.0 29.2 50.3 132.7 137.0 475.0
07/05 20:40 25.4 55 12.95 15.7 6 9 1012.6 0 28.1 29.3 50.5 133.2 137.7 477.5
07/05 20:30 25.5 54 12.78 15.5 6 13 1012.5 0 27.8 29.0 49.8 131.3 135.4 469.2
07/05 20:20 25.6 55 13.09 15.9 7 11 1012.4 0 28.4 29.4 50.9 134.4 139.2 482.6
07/05 20:10 25.6 54 12.86 15.6 7 11 1012.3 0 27.9 29.1 50.0 131.9 136.2 472.1
07/05 20:00 25.8 54 13 15.8 6 11 1012.2 0 28.2 29.2 50.4 133.0 137.6 477.2
07/05 19:50 26 52 12.66 15.6 4 6 1012 0 27.5 28.6 49.0 129.1 132.9 460.7
07/05 19:40 26.3 52 12.87 15.9 6 7 1012 0 27.9 28.8 49.6 130.8 135.1 468.3
07/05 19:30 26.4 52 12.95 15.8 6 9 1012 0 28.1 28.9 49.9 131.5 135.9 471.3

Last Refresh: 08-May-2026 12:08:49

Bureau of Meteorology